Time;durP1;ratioP1;P1;durP2;ratioP2;P2;SDS_P1;SDS_P2;PMS_P1;PMS_P2;Temp;Humidity;BMP_temperature;BMP_pressure;BME280_temperature;BME280_humidity;BME280_pressure;Samples;Min_cycle;Max_cycle;Signal;HPM_P1;HPM_P2
2023/08/22 00:03:58;;;;;;;7.75;5.95;;;;;;;23.06;63.35;98215.56;10373905;28;20469;-67
2023/08/22 00:09:19;;;;;;;6.40;5.80;;;;;;;22.96;63.40;98218.88;10374872;28;20125;-67
2023/08/22 00:14:40;;;;;;;10.30;5.93;;;;;;;22.90;63.90;98218.75;10374770;28;20169;-67
2023/08/22 00:20:04;;;;;;;8.30;6.13;;;;;;;22.88;64.42;98210.16;10373615;28;20050;-67
2023/08/22 00:25:25;;;;;;;9.18;5.68;;;;;;;22.84;64.76;98199.38;10373223;28;20049;-67
2023/08/22 00:30:46;;;;;;;7.10;5.85;;;;;;;22.81;64.92;98205.66;10374253;28;20157;-66
2023/08/22 00:36:07;;;;;;;7.20;5.68;;;;;;;22.75;65.05;98205.47;10373266;28;20129;-66
2023/08/22 00:41:28;;;;;;;8.73;5.80;;;;;;;22.70;65.38;98203.94;10374013;28;20042;-67
2023/08/22 00:46:49;;;;;;;7.82;5.78;;;;;;;22.69;65.64;98200.38;10373803;28;20137;-67
2023/08/22 00:52:10;;;;;;;7.22;6.00;;;;;;;22.59;65.94;98202.22;10373867;28;20121;-67
2023/08/22 00:57:31;;;;;;;8.45;6.05;;;;;;;22.51;66.20;98197.75;10373643;28;20117;-67
2023/08/22 01:02:52;;;;;;;6.47;5.88;;;;;;;22.44;66.35;98190.44;10372148;28;20061;-67
2023/08/22 01:08:20;;;;;;;9.30;6.45;;;;;;;22.43;67.13;98191.84;10358719;28;20046;-67
2023/08/22 01:13:41;;;;;;;7.15;5.25;;;;;;;22.38;66.87;98190.25;10376024;28;20240;-67
2023/08/22 01:19:05;;;;;;;8.82;5.45;;;;;;;22.30;67.37;98175.84;10394016;28;20491;-67
2023/08/22 01:24:26;;;;;;;8.05;5.50;;;;;;;22.27;67.63;98174.31;10380235;28;20491;-67
2023/08/22 01:29:53;;;;;;;10.13;6.13;;;;;;;22.25;67.84;98177.81;10380168;28;20208;-66
2023/08/22 01:35:14;;;;;;;6.53;5.30;;;;;;;22.24;68.26;98181.34;10379659;28;20145;-67
2023/08/22 01:40:35;;;;;;;7.70;5.68;;;;;;;22.22;68.32;98179.16;10379629;28;20050;-66
2023/08/22 01:45:56;;;;;;;7.22;5.88;;;;;;;22.17;68.65;98168.34;10365554;28;20061;-67
2023/08/22 01:51:17;;;;;;;9.60;6.57;;;;;;;22.09;69.07;98165.25;10379185;28;20125;-68
2023/08/22 01:56:37;;;;;;;10.15;6.57;;;;;;;22.01;68.97;98154.38;10378860;28;20137;-68
2023/08/22 02:01:58;;;;;;;9.48;6.60;;;;;;;21.97;69.54;98166.34;10378590;28;20076;-67
2023/08/22 02:07:20;;;;;;;9.50;6.60;;;;;;;21.97;69.38;98159.91;10379654;28;20396;-67
2023/08/22 02:12:41;;;;;;;7.75;5.78;;;;;;;22.00;69.47;98150.81;10364774;28;20073;-67
2023/08/22 02:18:02;;;;;;;10.20;6.10;;;;;;;22.00;70.00;98158.59;10378250;28;20543;-67
2023/08/22 02:23:22;;;;;;;7.03;5.75;;;;;;;21.95;69.97;98145.66;10377874;28;20125;-66
2023/08/22 02:28:45;;;;;;;7.83;6.63;;;;;;;21.93;69.90;98149.16;10391411;28;20070;-66
2023/08/22 02:34:06;;;;;;;11.40;6.20;;;;;;;21.90;70.25;98150.47;10378401;28;20376;-67
2023/08/22 02:39:27;;;;;;;11.50;5.82;;;;;;;21.90;70.35;98146.91;10391218;28;20116;-67
2023/08/22 02:44:48;;;;;;;10.52;6.90;;;;;;;21.91;70.58;98151.25;10377128;28;20122;-67
2023/08/22 02:50:09;;;;;;;9.23;6.82;;;;;;;21.94;70.73;98139.25;10377696;28;20198;-68
2023/08/22 02:55:31;;;;;;;10.55;6.55;;;;;;;21.98;70.85;98141.47;10376755;28;20125;-67
2023/08/22 03:00:52;;;;;;;7.93;6.20;;;;;;;21.96;70.76;98139.31;10362663;28;20118;-67
2023/08/22 03:06:15;;;;;;;9.05;6.22;;;;;;;21.94;70.90;98144.22;10376004;28;20129;-67
2023/08/22 03:11:37;;;;;;;8.15;6.45;;;;;;;21.90;71.22;98136.28;10362815;28;20140;-66
2023/08/22 03:17:00;;;;;;;9.90;7.40;;;;;;;21.90;70.74;98133.44;10375978;28;20126;-67
2023/08/22 03:22:21;;;;;;;8.40;5.88;;;;;;;21.93;71.33;98129.28;10375836;28;20065;-67
2023/08/22 03:27:42;;;;;;;8.93;6.70;;;;;;;21.97;71.11;98120.84;10375330;28;20109;-67
2023/08/22 03:33:03;;;;;;;9.65;6.05;;;;;;;21.91;71.44;98125.66;10361876;28;20465;-67
2023/08/22 03:38:25;;;;;;;8.20;6.30;;;;;;;21.86;71.55;98115.56;10374624;28;20124;-66
2023/08/22 03:43:46;;;;;;;10.82;6.18;;;;;;;21.82;71.95;98106.94;10360704;28;20112;-67
2023/08/22 03:49:08;;;;;;;7.63;6.10;;;;;;;21.81;72.03;98120.41;10374669;28;20072;-67
2023/08/22 03:54:29;;;;;;;9.98;5.97;;;;;;;21.78;72.24;98110.34;10374567;28;20125;-67
2023/08/22 03:59:49;;;;;;;7.70;6.15;;;;;;;21.77;72.53;98108.91;10360792;28;20188;-67
2023/08/22 04:05:10;;;;;;;9.23;7.07;;;;;;;21.77;72.24;98108.19;10375169;28;20129;-67
2023/08/22 04:10:31;;;;;;;8.07;6.30;;;;;;;21.70;72.11;98098.75;10375081;28;20163;-67
2023/08/22 04:15:52;;;;;;;10.68;6.60;;;;;;;21.63;72.71;98092.19;10374712;28;20121;-67
2023/08/22 04:21:12;;;;;;;9.98;6.63;;;;;;;21.62;73.04;98092.84;10373758;28;20038;-67
2023/08/22 04:26:33;;;;;;;7.93;6.78;;;;;;;21.67;73.14;98088.72;10373325;28;20121;-66
2023/08/22 04:31:58;;;;;;;9.80;6.65;;;;;;;21.76;72.97;98096.09;10359935;28;20496;-67
2023/08/22 04:37:19;;;;;;;12.35;7.40;;;;;;;21.95;73.18;98097.34;10373321;28;20476;-67
2023/08/22 04:42:40;;;;;;;7.85;6.45;;;;;;;22.18;72.70;98090.19;10374022;28;20169;-67
2023/08/22 04:48:03;;;;;;;9.80;6.20;;;;;;;22.34;72.65;98092.75;10372298;28;20068;-67
2023/08/22 04:53:24;;;;;;;10.57;6.55;;;;;;;22.60;72.24;98095.56;10372554;28;20396;-67
2023/08/22 04:58:45;;;;;;;8.00;6.72;;;;;;;23.04;71.58;98095.97;10372941;28;20068;-66
2023/08/22 05:04:07;;;;;;;9.10;6.18;;;;;;;23.45;70.89;98103.34;10372286;28;20082;-67
2023/08/22 05:09:29;;;;;;;8.38;7.05;;;;;;;23.95;70.12;98094.44;10372534;28;20480;-66
2023/08/22 05:14:50;;;;;;;13.70;7.10;;;;;;;24.52;69.00;98102.00;10372457;28;20057;-67
2023/08/22 05:20:13;;;;;;;10.90;8.27;;;;;;;25.02;67.42;98106.44;10372319;28;20057;-67
2023/08/22 05:25:36;;;;;;;10.80;7.13;;;;;;;25.55;66.16;98110.06;10385595;28;20117;-68
2023/08/22 05:30:57;;;;;;;9.15;7.20;;;;;;;25.94;63.36;98119.91;10372113;28;20108;-67
2023/08/22 05:36:22;;;;;;;10.32;7.35;;;;;;;27.17;59.61;98124.78;10372045;28;20069;-67
2023/08/22 05:41:42;;;;;;;10.90;7.78;;;;;;;31.16;52.80;98130.56;10373247;28;20069;-67
2023/08/22 05:47:05;;;;;;;9.00;6.80;;;;;;;36.18;44.14;98128.69;10358366;28;20134;-70
2023/08/22 05:52:28;;;;;;;10.10;7.78;;;;;;;38.83;35.23;98124.00;10371745;28;20058;-69
2023/08/22 05:57:49;;;;;;;9.13;6.68;;;;;;;41.05;29.57;98131.72;10372963;28;20048;-70
2023/08/22 06:03:12;;;;;;;10.87;6.67;;;;;;;41.93;27.34;98133.84;10378665;28;20053;-70
2023/08/22 06:08:33;;;;;;;8.82;6.72;;;;;;;43.79;24.61;98138.78;10378509;28;20133;-70
2023/08/22 06:13:55;;;;;;;7.47;5.88;;;;;;;45.13;22.39;98141.34;10378423;28;20050;-70
2023/08/22 06:19:17;;;;;;;8.18;5.60;;;;;;;46.30;20.66;98134.09;10378010;28;20053;-71
2023/08/22 06:24:38;;;;;;;7.00;5.45;;;;;;;46.72;20.02;98130.34;10378629;28;20046;-70
2023/08/22 06:30:01;;;;;;;7.75;5.10;;;;;;;47.36;18.37;98129.28;10377989;28;20054;-72
2023/08/22 06:35:28;;;;;;;6.07;4.32;;;;;;;48.71;17.91;98114.91;10378867;28;20060;-71
2023/08/22 06:40:49;;;;;;;5.57;4.53;;;;;;;49.63;16.84;98103.59;10378805;28;20049;-72
2023/08/22 06:46:11;;;;;;;7.05;4.65;;;;;;;50.67;16.21;98112.94;10377216;28;20045;-71
2023/08/22 06:51:32;;;;;;;6.47;4.13;;;;;;;51.50;15.54;98107.56;10363168;28;20076;-73
2023/08/22 06:56:54;;;;;;;5.82;4.32;;;;;;;52.54;13.42;98106.53;10377859;28;20076;-71
2023/08/22 07:02:15;;;;;;;6.20;4.53;;;;;;;52.46;13.68;98098.41;10377171;28;20082;-72
2023/08/22 07:07:38;;;;;;;6.53;4.22;;;;;;;53.68;13.17;98092.03;10377224;28;20042;-71
2023/08/22 07:13:00;;;;;;;6.22;3.65;;;;;;;53.92;12.79;98101.44;10375114;28;20467;-72
2023/08/22 07:18:21;;;;;;;8.02;4.05;;;;;;;54.54;11.58;98089.69;10376889;28;20042;-72
2023/08/22 07:23:42;;;;;;;4.70;3.97;;;;;;;54.55;12.35;98097.06;10389513;28;20057;-71
2023/08/22 07:29:06;;;;;;;4.07;3.40;;;;;;;56.07;11.43;98099.72;10375301;28;20132;-72
2023/08/22 07:34:27;;;;;;;4.32;3.50;;;;;;;56.20;10.09;98091.41;10375236;28;20041;-72
2023/08/22 07:39:49;;;;;;;4.90;3.55;;;;;;;56.04;10.53;98090.28;10375785;28;20570;-71
2023/08/22 07:45:10;;;;;;;6.95;3.80;;;;;;;56.50;10.60;98089.50;10375782;28;20064;-72
2023/08/22 07:50:31;;;;;;;6.75;3.20;;;;;;;56.70;9.73;98090.16;10374359;28;20061;-72
2023/08/22 07:55:52;;;;;;;8.13;3.70;;;;;;;56.84;9.81;98081.09;10375312;28;20404;-72
2023/08/22 08:01:14;;;;;;;4.80;3.40;;;;;;;57.60;10.00;98079.50;10375177;28;20120;-72
2023/08/22 08:06:35;;;;;;;5.68;3.17;;;;;;;58.04;10.01;98078.66;10360290;28;20419;-72
2023/08/22 08:11:57;;;;;;;5.20;3.40;;;;;;;56.64;10.45;98072.19;10374950;28;20049;-72
2023/08/22 08:17:19;;;;;;;6.22;3.10;;;;;;;57.59;9.54;98069.13;10373575;28;20076;-72
2023/08/22 08:22:40;;;;;;;6.63;3.17;;;;;;;59.02;9.25;98058.81;10374638;28;20128;-73
2023/08/22 08:28:01;;;;;;;6.00;3.20;;;;;;;60.45;8.88;98064.31;10374268;28;20484;-73
2023/08/22 08:33:24;;;;;;;5.63;3.50;;;;;;;61.46;7.49;98061.13;10374290;28;20041;-73
2023/08/22 08:38:45;;;;;;;5.55;2.80;;;;;;;61.80;7.42;98058.66;10374010;28;20046;-73
2023/08/22 08:44:07;;;;;;;5.03;3.10;;;;;;;62.04;7.58;98051.50;10374125;28;20041;-72
2023/08/22 08:49:31;;;;;;;6.17;3.37;;;;;;;59.47;8.06;98034.31;10373767;28;20436;-73
2023/08/22 08:54:58;;;;;;;6.00;2.95;;;;;;;58.71;9.31;98031.94;10372897;28;20451;-72
2023/08/22 09:00:19;;;;;;;6.47;3.30;;;;;;;60.29;8.25;98027.97;10386360;28;20096;-72
2023/08/22 09:05:41;;;;;;;5.45;3.35;;;;;;;60.06;9.07;98017.53;10372529;28;20057;-72
2023/08/22 09:11:02;;;;;;;4.00;3.28;;;;;;;60.75;7.26;98022.66;10372777;28;20038;-72
2023/08/22 09:16:24;;;;;;;4.95;3.50;;;;;;;59.41;8.46;98011.72;10373405;28;20100;-71
2023/08/22 09:21:58;;;;;;;7.30;3.70;;;;;;;58.37;8.96;98000.91;10385857;28;20511;-71
2023/08/22 09:27:29;;;;;;;4.82;3.17;;;;;;;57.77;8.55;98012.84;10372981;28;20069;-71
2023/08/22 09:32:58;;;;;;;6.10;2.55;;;;;;;58.83;8.56;98004.97;10385852;28;20042;-72
2023/08/22 09:38:20;;;;;;;7.25;3.08;;;;;;;59.65;8.45;97998.13;10380571;28;20139;-72
2023/08/22 09:43:42;;;;;;;6.28;3.10;;;;;;;59.15;7.83;97994.06;10380673;28;20041;-72
2023/08/22 09:49:03;;;;;;;3.10;2.55;;;;;;;60.69;8.68;97994.66;10393141;28;20108;-72
2023/08/22 09:54:24;;;;;;;7.20;3.35;;;;;;;61.87;7.33;97992.72;10392903;28;20046;-72
2023/08/22 09:59:47;;;;;;;5.10;3.38;;;;;;;60.99;6.84;97989.13;10365113;28;20049;-72
2023/08/22 10:05:09;;;;;;;4.30;3.03;;;;;;;60.31;6.94;97975.78;10379668;28;20478;-72
2023/08/22 10:10:30;;;;;;;3.53;3.10;;;;;;;59.57;8.00;97979.53;10379304;28;20053;-72
2023/08/22 10:15:51;;;;;;;6.03;2.88;;;;;;;58.28;8.03;97955.50;10379269;28;20050;-72
2023/08/22 10:21:11;;;;;;;3.13;2.60;;;;;;;58.71;8.06;97953.09;10379260;28;20054;-74
2023/08/22 10:27:00;;;;;;;5.20;2.03;;;;;;;56.48;8.56;97946.63;10364438;28;20118;-72
2023/08/22 10:32:25;;;;;;;3.42;2.05;;;;;;;50.99;10.69;97945.88;10390860;28;20057;-72
2023/08/22 10:37:47;;;;;;;5.47;2.50;;;;;;;46.45;14.95;97940.44;10377573;28;20473;-72
2023/08/22 10:43:09;;;;;;;4.68;2.60;;;;;;;43.42;16.50;97937.53;10377492;28;20141;-71
2023/08/22 10:48:31;;;;;;;5.20;2.67;;;;;;;43.44;18.26;97943.31;10376997;28;20137;-73
2023/08/22 10:53:55;;;;;;;4.28;2.92;;;;;;;42.23;18.70;97929.19;10390664;28;20042;-73
2023/08/22 10:59:16;;;;;;;6.93;2.97;;;;;;;42.83;19.46;97929.38;10377074;28;20050;-72
2023/08/22 11:04:37;;;;;;;3.50;2.50;;;;;;;42.58;18.86;97927.91;10376413;28;20058;-72
2023/08/22 11:09:59;;;;;;;4.05;2.30;;;;;;;43.98;20.34;97924.41;10377356;28;20065;-72
2023/08/22 11:15:20;;;;;;;4.75;2.35;;;;;;;46.17;15.70;97924.84;10389702;28;20053;-71
2023/08/22 11:20:42;;;;;;;3.22;2.25;;;;;;;44.72;17.27;97925.50;10376880;28;20042;-72
2023/08/22 11:26:06;;;;;;;6.43;4.45;;;;;;;44.93;16.78;97925.50;10375803;28;20121;-72
2023/08/22 11:31:27;;;;;;;8.60;5.85;;;;;;;41.23;22.22;97928.06;10375407;28;20053;-72
2023/08/22 11:36:48;;;;;;;10.07;5.30;;;;;;;38.73;25.03;97928.28;10375142;28;20046;-71
2023/08/22 11:42:09;;;;;;;8.10;5.80;;;;;;;37.65;27.06;97923.84;10375145;28;20048;-72
2023/08/22 11:47:40;;;;;;;12.15;6.18;;;;;;;37.04;29.20;97926.06;10374671;28;20056;-72
2023/08/22 11:53:12;;;;;;;10.68;6.00;;;;;;;36.20;29.90;97919.44;10375920;28;20499;-72
2023/08/22 11:58:34;;;;;;;8.13;4.90;;;;;;;36.68;30.38;97923.66;10387676;28;20046;-71
2023/08/22 12:03:56;;;;;;;10.27;5.38;;;;;;;36.71;29.51;97917.75;10374042;28;20054;-71
2023/08/22 12:09:18;;;;;;;10.55;5.40;;;;;;;37.48;29.27;97912.09;10375066;28;20200;-72
2023/08/22 12:14:39;;;;;;;10.32;4.90;;;;;;;38.03;27.93;97910.72;10373695;28;20046;-71
2023/08/22 12:20:00;;;;;;;6.00;3.30;;;;;;;38.63;27.48;97911.91;10387633;28;20113;-71
2023/08/22 12:25:21;;;;;;;4.05;2.80;;;;;;;38.75;26.18;97904.84;10374607;28;20453;-71
2023/08/22 12:30:42;;;;;;;5.85;2.80;;;;;;;38.77;25.65;97902.56;10374472;28;20061;-71
2023/08/22 12:36:03;;;;;;;3.78;2.72;;;;;;;38.61;25.52;97906.16;10374158;28;20081;-71
2023/08/22 12:41:24;;;;;;;6.80;2.85;;;;;;;38.25;25.38;97896.75;10373231;28;20042;-71
2023/08/22 12:46:44;;;;;;;6.22;2.80;;;;;;;38.39;25.09;97893.22;10373405;28;20053;-71
2023/08/22 12:52:05;;;;;;;5.78;2.75;;;;;;;38.12;24.96;97889.97;10386538;28;20065;-71
2023/08/22 12:57:26;;;;;;;3.92;3.20;;;;;;;37.04;26.75;97882.44;10373699;28;20073;-71
2023/08/22 13:02:47;;;;;;;6.80;3.35;;;;;;;36.80;27.62;97884.72;10373466;28;20058;-71
2023/08/22 13:08:08;;;;;;;5.47;3.22;;;;;;;37.31;27.73;97871.25;10374534;28;20056;-71
2023/08/22 13:13:30;;;;;;;4.05;3.22;;;;;;;37.08;26.66;97859.03;10381514;28;20053;-71
2023/08/22 13:18:50;;;;;;;4.90;2.90;;;;;;;37.28;27.42;97849.53;10381574;28;20070;-71
2023/08/22 13:24:11;;;;;;;4.70;3.00;;;;;;;37.26;26.91;97861.25;10394235;28;20089;-71
2023/08/22 13:29:32;;;;;;;7.32;3.22;;;;;;;36.35;28.31;97850.69;10381068;28;20061;-70
2023/08/22 13:34:53;;;;;;;5.97;3.25;;;;;;;36.63;28.26;97848.97;10366265;28;20076;-71
2023/08/22 13:40:13;;;;;;;6.88;3.10;;;;;;;36.91;28.25;97845.06;10393310;28;20049;-71
2023/08/22 13:45:34;;;;;;;4.72;3.22;;;;;;;36.78;27.60;97837.56;10380520;28;20057;-70
2023/08/22 13:50:55;;;;;;;4.47;3.35;;;;;;;36.62;28.18;97842.47;10380174;28;20049;-71
2023/08/22 13:56:16;;;;;;;6.32;3.30;;;;;;;36.10;28.79;97836.25;10379957;28;20399;-72
2023/08/22 14:01:37;;;;;;;6.32;3.85;;;;;;;36.32;28.36;97831.88;10378783;28;20396;-71
2023/08/22 14:06:58;;;;;;;4.47;3.47;;;;;;;36.84;28.10;97828.63;10378799;28;20069;-69
2023/08/22 14:12:19;;;;;;;5.65;3.22;;;;;;;37.04;27.47;97822.06;10378672;28;20061;-72
2023/08/22 14:17:40;;;;;;;4.65;3.53;;;;;;;36.79;27.93;97815.72;10378027;28;20096;-71
2023/08/22 14:23:01;;;;;;;4.32;3.10;;;;;;;37.00;27.24;97816.41;10364422;28;20064;-71
2023/08/22 14:28:23;;;;;;;6.00;3.38;;;;;;;36.88;27.01;97811.03;10378896;28;20451;-72
2023/08/22 14:33:44;;;;;;;5.95;3.13;;;;;;;36.78;27.48;97797.56;10378835;28;20053;-72
2023/08/22 14:39:04;;;;;;;5.63;2.80;;;;;;;36.83;27.19;97803.94;10378133;28;20078;-71
2023/08/22 14:44:25;;;;;;;;;;;;;;;36.46;27.06;97801.63;10378499;28;20045;-71
2023/08/22 14:49:46;;;;;;;4.25;2.60;;;;;;;36.16;27.82;97804.06;10390628;28;19921;-69
2023/08/22 14:55:07;;;;;;;;;;;;;;;35.73;28.27;97796.06;10391087;28;20070;-71
2023/08/22 15:00:28;;;;;;;4.85;2.50;;;;;;;35.33;28.50;97790.03;10376647;28;19922;-71
2023/08/22 15:05:49;;;;;;;5.45;2.58;;;;;;;35.27;28.63;97793.13;10376328;28;20058;-71
2023/08/22 15:11:12;;;;;;;4.78;2.47;;;;;;;35.43;28.60;97781.03;10376285;28;20400;-71
2023/08/22 15:16:34;;;;;;;6.90;2.63;;;;;;;35.76;28.23;97782.88;10377012;28;20473;-70
2023/08/22 15:21:55;;;;;;;3.38;2.40;;;;;;;35.92;28.03;97782.38;10376006;28;20100;-70
2023/08/22 15:27:16;;;;;;;;;;;;;;;36.01;28.19;97782.81;10377336;28;20081;-71
2023/08/22 15:32:36;;;;;;;5.30;2.63;;;;;;;36.01;28.23;97782.81;10375674;28;20008;-71
2023/08/22 15:37:57;;;;;;;5.88;2.80;;;;;;;35.95;27.48;97786.63;10376348;28;20058;-71
2023/08/22 15:43:18;;;;;;;6.68;2.25;;;;;;;35.65;27.74;97793.41;10376056;28;20042;-71
2023/08/22 15:48:40;;;;;;;3.30;2.55;;;;;;;35.39;28.26;97784.06;10388651;28;20408;-71
2023/08/22 15:54:01;;;;;;;4.50;2.70;;;;;;;34.98;28.49;97785.25;10375647;28;20481;-71
2023/08/22 15:59:22;;;;;;;5.95;2.17;;;;;;;34.74;28.75;97783.03;10375605;28;20117;-70
2023/08/22 16:04:43;;;;;;;;;;;;;;;34.38;29.09;97791.28;10374582;28;20057;-71
2023/08/22 16:10:04;;;;;;;5.67;2.50;;;;;;;33.91;29.71;97785.97;10374108;28;19921;-71
2023/08/22 16:15:25;;;;;;;5.40;2.10;;;;;;;33.77;29.79;97784.09;10374098;28;20388;-70
2023/08/22 16:20:48;;;;;;;5.75;1.80;;;;;;;33.64;29.94;97785.16;10373710;28;20124;-70
2023/08/22 16:26:13;;;;;;;2.67;1.35;;;;;;;33.24;29.46;97781.72;10373827;28;20403;-71
2023/08/22 16:31:37;;;;;;;3.17;1.67;;;;;;;32.95;29.51;97790.28;10386700;28;20176;-71
2023/08/22 16:36:58;;;;;;;5.63;2.38;;;;;;;32.91;30.20;97796.88;10387065;28;20385;-71
2023/08/22 16:42:19;;;;;;;3.22;2.15;;;;;;;32.75;30.81;97797.91;10374137;28;20050;-71
2023/08/22 16:47:41;;;;;;;4.68;2.40;;;;;;;32.41;32.37;97802.16;10373930;28;20050;-71
2023/08/22 16:53:03;;;;;;;;;;;;;;;32.03;34.45;97811.47;10374655;28;20042;-71
2023/08/22 16:58:24;;;;;;;4.95;2.42;;;;;;;31.64;34.82;97812.06;10373716;28;19945;-71
2023/08/22 17:03:45;;;;;;;4.10;2.37;;;;;;;31.31;36.69;97815.44;10373695;28;20093;-69
2023/08/22 17:09:06;;;;;;;3.60;2.27;;;;;;;30.98;37.65;97815.16;10373784;28;20045;-71
2023/08/22 17:14:28;;;;;;;8.60;2.50;;;;;;;30.63;38.05;97828.50;10386330;28;20049;-70
2023/08/22 17:19:48;;;;;;;4.45;2.47;;;;;;;30.30;39.28;97828.09;10373780;28;20046;-70
2023/08/22 17:25:09;;;;;;;4.40;2.33;;;;;;;29.93;40.12;97843.50;10373982;28;20069;-70
2023/08/22 17:30:30;;;;;;;7.37;2.50;;;;;;;29.69;40.74;97843.69;10373487;28;20046;-70
2023/08/22 17:35:51;;;;;;;5.73;2.23;;;;;;;29.44;41.31;97856.78;10373121;28;20046;-69
2023/08/22 17:41:12;;;;;;;7.13;2.33;;;;;;;29.23;41.74;97856.84;10358729;28;20078;-70
2023/08/22 17:46:33;;;;;;;5.28;2.72;;;;;;;28.96;42.83;97859.13;10372260;28;20480;-70
2023/08/22 17:51:54;;;;;;;6.60;2.42;;;;;;;28.79;43.30;97869.22;10372962;28;20104;-70
2023/08/22 17:57:15;;;;;;;4.25;2.70;;;;;;;28.67;43.81;97869.97;10363473;28;20389;-68
2023/08/22 18:02:35;;;;;;;5.70;2.90;;;;;;;28.58;43.95;97877.16;10378937;28;20084;-68
2023/08/22 18:07:57;;;;;;;5.70;2.33;;;;;;;28.36;44.41;97880.78;10379910;28;20084;-68
2023/08/22 18:13:18;;;;;;;5.57;2.75;;;;;;;28.18;44.95;97895.09;10378496;28;20125;-69
2023/08/22 18:18:39;;;;;;;6.75;2.47;;;;;;;27.97;45.61;97902.97;10379262;28;20049;-68
2023/08/22 18:24:01;;;;;;;5.47;2.65;;;;;;;27.75;46.40;97915.13;10378843;28;20058;-67
2023/08/22 18:29:22;;;;;;;7.82;2.40;;;;;;;27.51;46.56;97924.38;10378647;28;20062;-67
2023/08/22 18:34:48;;;;;;;5.80;3.17;;;;;;;27.29;47.05;97938.59;10378570;28;20070;-66
2023/08/22 18:40:09;;;;;;;9.73;2.92;;;;;;;27.11;46.92;97942.09;10378257;28;20144;-67
2023/08/22 18:45:30;;;;;;;7.15;2.78;;;;;;;26.89;47.54;97948.41;10378184;28;20587;-68
2023/08/22 18:50:59;;;;;;;5.18;3.17;;;;;;;26.76;48.00;97952.63;10376736;28;20508;-67
2023/08/22 18:56:20;;;;;;;4.30;2.65;;;;;;;26.60;48.38;97961.09;10376832;28;20046;-68
2023/08/22 19:01:40;;;;;;;13.32;3.15;;;;;;;26.45;48.28;97969.56;10377126;28;20149;-68
2023/08/22 19:07:01;;;;;;;8.13;3.38;;;;;;;26.23;48.97;97964.34;10377567;28;20516;-69
2023/08/22 19:12:22;;;;;;;5.82;2.63;;;;;;;26.03;48.65;97972.00;10380148;28;20180;-68
2023/08/22 19:17:42;;;;;;;4.97;2.70;;;;;;;25.91;49.03;97973.31;10379415;28;20122;-68
2023/08/22 19:23:05;;;;;;;4.97;2.67;;;;;;;25.83;48.71;97961.09;10378230;28;20504;-67
2023/08/22 19:28:25;;;;;;;6.18;2.70;;;;;;;25.76;49.10;97974.59;10377918;28;20116;-67
2023/08/22 19:33:46;;;;;;;8.20;2.78;;;;;;;25.65;49.07;97973.00;10377833;28;20113;-67
2023/08/22 19:39:07;;;;;;;5.50;2.90;;;;;;;25.52;48.92;97985.72;10377942;28;20125;-67
2023/08/22 19:44:28;;;;;;;4.45;2.90;;;;;;;25.46;49.35;97989.22;10377811;28;20078;-67
2023/08/22 19:49:49;;;;;;;4.50;2.50;;;;;;;25.39;49.08;97990.56;10378109;28;20101;-67
2023/08/22 19:55:10;;;;;;;4.93;2.90;;;;;;;25.36;49.04;97995.50;10378070;28;20057;-67
2023/08/22 20:00:34;;;;;;;7.78;3.03;;;;;;;25.28;49.19;97998.25;10376809;28;20062;-67
2023/08/22 20:05:59;;;;;;;6.93;2.95;;;;;;;25.18;49.67;97997.41;10375531;28;20507;-67
2023/08/22 20:11:20;;;;;;;7.75;2.97;;;;;;;25.15;49.97;97990.94;10375157;28;20073;-67
2023/08/22 20:16:40;;;;;;;6.20;3.50;;;;;;;25.15;50.08;97995.94;10374909;28;20143;-67
2023/08/22 20:22:01;;;;;;;6.60;3.33;;;;;;;25.05;50.08;97993.66;10374920;28;20424;-67
2023/08/22 20:27:22;;;;;;;7.40;5.03;;;;;;;25.02;50.44;97995.06;10374924;28;20070;-68
2023/08/22 20:32:43;;;;;;;5.50;3.35;;;;;;;24.99;50.37;97990.69;10374673;28;20165;-67
2023/08/22 20:38:05;;;;;;;7.65;3.10;;;;;;;25.00;50.61;97995.00;10374723;28;20052;-67
2023/08/22 20:43:26;;;;;;;5.82;3.13;;;;;;;25.03;50.72;97991.50;10374360;28;20072;-68
2023/08/22 20:48:46;;;;;;;7.65;3.42;;;;;;;24.99;50.40;97997.13;10374265;28;20496;-66
2023/08/22 20:54:07;;;;;;;7.60;3.10;;;;;;;24.94;51.02;97997.75;10374124;28;20125;-67
2023/08/22 20:59:28;;;;;;;4.57;3.25;;;;;;;24.91;50.83;98002.00;10373226;28;20149;-68
2023/08/22 21:04:49;;;;;;;7.60;3.28;;;;;;;24.92;51.09;97997.75;10373879;28;20467;-67
2023/08/22 21:10:10;;;;;;;5.47;3.42;;;;;;;24.94;51.31;97995.63;10373715;28;20049;-67
2023/08/22 21:15:30;;;;;;;8.02;3.50;;;;;;;24.96;51.05;98006.34;10373719;28;20074;-67
2023/08/22 21:20:52;;;;;;;9.70;3.78;;;;;;;24.92;51.45;98009.16;10373422;28;20146;-67
2023/08/22 21:26:13;;;;;;;6.50;4.05;;;;;;;24.86;51.68;98006.19;10386080;28;20122;-67
2023/08/22 21:31:33;;;;;;;5.35;3.50;;;;;;;24.78;51.54;98016.06;10377812;28;20184;-67
2023/08/22 21:36:54;;;;;;;5.68;3.70;;;;;;;24.74;51.51;98021.72;10380147;28;20246;-67
2023/08/22 21:42:15;;;;;;;9.82;4.20;;;;;;;24.72;51.82;98010.28;10380940;28;20074;-67
2023/08/22 21:47:37;;;;;;;5.43;3.97;;;;;;;24.64;52.45;98009.44;10380478;28;20121;-67
2023/08/22 21:52:58;;;;;;;6.35;3.58;;;;;;;24.59;52.97;98014.34;10379550;28;20128;-67
2023/08/22 21:58:19;;;;;;;6.93;3.85;;;;;;;24.62;53.04;98017.97;10380317;28;20126;-67
2023/08/22 22:03:42;;;;;;;6.57;3.97;;;;;;;24.57;53.08;98013.59;10378873;28;20077;-68
2023/08/22 23:22:13;;;;;;;7.63;5.07;;;;;;;23.67;55.72;98020.50;10619295;27;1291609;-67
2023/08/22 23:27:34;;;;;;;8.50;4.80;;;;;;;23.75;56.78;98025.63;10619023;28;20043;-68
2023/08/22 23:32:55;;;;;;;6.45;4.60;;;;;;;23.72;57.14;98019.16;10589089;28;20444;-68
2023/08/22 23:38:16;;;;;;;7.70;5.10;;;;;;;23.76;57.67;98021.38;10618320;28;20119;-68
2023/08/22 23:43:36;;;;;;;7.75;4.68;;;;;;;23.74;58.14;98024.16;10618073;28;20131;-68
2023/08/22 23:48:57;;;;;;;8.13;4.40;;;;;;;23.69;58.64;98024.09;10617907;28;20114;-68
2023/08/22 23:54:18;;;;;;;8.38;4.90;;;;;;;23.64;58.82;98018.97;10588026;28;20507;-67
2023/08/22 23:59:39;;;;;;;8.77;4.40;;;;;;;23.59;59.26;98023.16;10617214;28;20158;-68
